sensor_id;sensor_type;location;lat;lon;timestamp;P1;durP1;ratioP1;P2;durP2;ratioP2
42670;SDS011;28283;55.426;37.756;2023-07-31T00:02:48;4.30;;;2.20;;
42670;SDS011;28283;55.426;37.756;2023-07-31T00:07:49;4.35;;;2.58;;
42670;SDS011;28283;55.426;37.756;2023-07-31T00:12:50;3.90;;;1.88;;
42670;SDS011;28283;55.426;37.756;2023-07-31T00:22:51;3.50;;;2.42;;
42670;SDS011;28283;55.426;37.756;2023-07-31T00:27:52;4.63;;;2.17;;
42670;SDS011;28283;55.426;37.756;2023-07-31T00:32:52;2.45;;;1.73;;
42670;SDS011;28283;55.426;37.756;2023-07-31T00:37:53;2.03;;;1.70;;
42670;SDS011;28283;55.426;37.756;2023-07-31T00:42:54;5.55;;;1.77;;
42670;SDS011;28283;55.426;37.756;2023-07-31T00:47:54;1.92;;;1.75;;
42670;SDS011;28283;55.426;37.756;2023-07-31T00:52:55;3.33;;;1.90;;
42670;SDS011;28283;55.426;37.756;2023-07-31T00:57:56;5.03;;;2.08;;
42670;SDS011;28283;55.426;37.756;2023-07-31T01:02:56;3.20;;;2.05;;
42670;SDS011;28283;55.426;37.756;2023-07-31T01:08:32;2.53;;;2.20;;
42670;SDS011;28283;55.426;37.756;2023-07-31T01:13:27;1.98;;;1.88;;
42670;SDS011;28283;55.426;37.756;2023-07-31T01:18:29;1.92;;;1.83;;
42670;SDS011;28283;55.426;37.756;2023-07-31T01:28:55;4.35;;;2.28;;
42670;SDS011;28283;55.426;37.756;2023-07-31T01:34:01;2.23;;;1.70;;
42670;SDS011;28283;55.426;37.756;2023-07-31T01:39:03;2.38;;;2.17;;
42670;SDS011;28283;55.426;37.756;2023-07-31T01:44:04;4.47;;;1.73;;
42670;SDS011;28283;55.426;37.756;2023-07-31T01:49:05;4.50;;;2.42;;
42670;SDS011;28283;55.426;37.756;2023-07-31T01:54:06;3.95;;;1.73;;
42670;SDS011;28283;55.426;37.756;2023-07-31T01:59:07;2.58;;;2.38;;
42670;SDS011;28283;55.426;37.756;2023-07-31T02:04:07;2.03;;;1.60;;
42670;SDS011;28283;55.426;37.756;2023-07-31T02:09:08;6.10;;;2.20;;
42670;SDS011;28283;55.426;37.756;2023-07-31T02:14:09;2.88;;;2.45;;
42670;SDS011;28283;55.426;37.756;2023-07-31T02:19:09;4.85;;;2.30;;
42670;SDS011;28283;55.426;37.756;2023-07-31T02:24:10;4.85;;;1.98;;
42670;SDS011;28283;55.426;37.756;2023-07-31T02:29:11;6.17;;;2.37;;
42670;SDS011;28283;55.426;37.756;2023-07-31T02:34:11;2.38;;;2.15;;
42670;SDS011;28283;55.426;37.756;2023-07-31T02:39:12;3.60;;;2.43;;
42670;SDS011;28283;55.426;37.756;2023-07-31T02:44:13;2.88;;;2.35;;
42670;SDS011;28283;55.426;37.756;2023-07-31T02:49:14;6.75;;;2.53;;
42670;SDS011;28283;55.426;37.756;2023-07-31T02:54:15;4.25;;;2.50;;
42670;SDS011;28283;55.426;37.756;2023-07-31T02:59:16;2.80;;;2.08;;
42670;SDS011;28283;55.426;37.756;2023-07-31T03:04:17;3.40;;;1.95;;
42670;SDS011;28283;55.426;37.756;2023-07-31T03:09:18;2.60;;;2.40;;
42670;SDS011;28283;55.426;37.756;2023-07-31T03:14:18;3.50;;;2.20;;
42670;SDS011;28283;55.426;37.756;2023-07-31T03:19:19;3.60;;;2.88;;
42670;SDS011;28283;55.426;37.756;2023-07-31T03:24:20;3.45;;;2.20;;
42670;SDS011;28283;55.426;37.756;2023-07-31T03:29:21;8.68;;;2.90;;
42670;SDS011;28283;55.426;37.756;2023-07-31T03:34:21;4.10;;;2.40;;
42670;SDS011;28283;55.426;37.756;2023-07-31T03:39:23;3.75;;;2.30;;
42670;SDS011;28283;55.426;37.756;2023-07-31T03:44:23;4.75;;;2.65;;
42670;SDS011;28283;55.426;37.756;2023-07-31T03:49:24;5.57;;;2.65;;
42670;SDS011;28283;55.426;37.756;2023-07-31T03:54:24;4.00;;;2.78;;
42670;SDS011;28283;55.426;37.756;2023-07-31T03:59:25;2.55;;;2.28;;
42670;SDS011;28283;55.426;37.756;2023-07-31T04:04:26;2.47;;;2.25;;
42670;SDS011;28283;55.426;37.756;2023-07-31T04:09:27;5.38;;;2.20;;
42670;SDS011;28283;55.426;37.756;2023-07-31T04:14:27;5.28;;;2.70;;
42670;SDS011;28283;55.426;37.756;2023-07-31T04:19:28;7.07;;;2.55;;
42670;SDS011;28283;55.426;37.756;2023-07-31T04:24:29;4.25;;;2.17;;
42670;SDS011;28283;55.426;37.756;2023-07-31T04:29:29;3.30;;;2.05;;
42670;SDS011;28283;55.426;37.756;2023-07-31T04:34:30;8.75;;;2.50;;
42670;SDS011;28283;55.426;37.756;2023-07-31T04:39:31;3.20;;;2.10;;
42670;SDS011;28283;55.426;37.756;2023-07-31T04:49:32;6.45;;;2.30;;
42670;SDS011;28283;55.426;37.756;2023-07-31T04:54:33;5.80;;;2.15;;
42670;SDS011;28283;55.426;37.756;2023-07-31T04:59:33;2.95;;;1.67;;
42670;SDS011;28283;55.426;37.756;2023-07-31T05:09:34;3.50;;;1.73;;
42670;SDS011;28283;55.426;37.756;2023-07-31T05:19:36;4.07;;;1.48;;
42670;SDS011;28283;55.426;37.756;2023-07-31T05:29:37;5.38;;;1.45;;
42670;SDS011;28283;55.426;37.756;2023-07-31T05:39:38;6.78;;;1.45;;
42670;SDS011;28283;55.426;37.756;2023-07-31T05:49:40;5.03;;;1.08;;
42670;SDS011;28283;55.426;37.756;2023-07-31T05:59:42;0.98;;;0.90;;
42670;SDS011;28283;55.426;37.756;2023-07-31T06:09:43;3.50;;;0.60;;
42670;SDS011;28283;55.426;37.756;2023-07-31T06:14:44;2.17;;;0.70;;
42670;SDS011;28283;55.426;37.756;2023-07-31T06:19:45;2.08;;;1.08;;
42670;SDS011;28283;55.426;37.756;2023-07-31T06:24:46;1.02;;;0.38;;
42670;SDS011;28283;55.426;37.756;2023-07-31T06:29:46;2.25;;;0.60;;
42670;SDS011;28283;55.426;37.756;2023-07-31T06:34:48;5.00;;;1.15;;
42670;SDS011;28283;55.426;37.756;2023-07-31T06:39:48;4.72;;;1.25;;
42670;SDS011;28283;55.426;37.756;2023-07-31T06:44:49;4.15;;;0.80;;
42670;SDS011;28283;55.426;37.756;2023-07-31T06:49:50;2.30;;;0.80;;
42670;SDS011;28283;55.426;37.756;2023-07-31T06:55:00;3.78;;;1.02;;
42670;SDS011;28283;55.426;37.756;2023-07-31T07:00:03;10.73;;;1.17;;
42670;SDS011;28283;55.426;37.756;2023-07-31T07:05:05;2.58;;;0.63;;
42670;SDS011;28283;55.426;37.756;2023-07-31T07:10:07;3.92;;;0.88;;
42670;SDS011;28283;55.426;37.756;2023-07-31T07:15:08;1.90;;;0.93;;
42670;SDS011;28283;55.426;37.756;2023-07-31T07:20:10;3.50;;;1.00;;
42670;SDS011;28283;55.426;37.756;2023-07-31T07:25:11;0.82;;;0.40;;
42670;SDS011;28283;55.426;37.756;2023-07-31T07:30:11;1.55;;;0.30;;
42670;SDS011;28283;55.426;37.756;2023-07-31T07:35:12;2.17;;;0.43;;
42670;SDS011;28283;55.426;37.756;2023-07-31T07:40:12;1.88;;;0.80;;
42670;SDS011;28283;55.426;37.756;2023-07-31T07:45:13;1.00;;;0.50;;
42670;SDS011;28283;55.426;37.756;2023-07-31T07:50:14;1.35;;;0.50;;
42670;SDS011;28283;55.426;37.756;2023-07-31T07:55:14;0.57;;;0.20;;
42670;SDS011;28283;55.426;37.756;2023-07-31T08:00:15;0.60;;;0.50;;
42670;SDS011;28283;55.426;37.756;2023-07-31T08:05:17;1.20;;;0.60;;
42670;SDS011;28283;55.426;37.756;2023-07-31T08:10:18;1.95;;;0.47;;
42670;SDS011;28283;55.426;37.756;2023-07-31T08:15:18;1.85;;;0.90;;
42670;SDS011;28283;55.426;37.756;2023-07-31T08:20:19;0.30;;;0.30;;
42670;SDS011;28283;55.426;37.756;2023-07-31T08:25:19;0.30;;;0.30;;
42670;SDS011;28283;55.426;37.756;2023-07-31T08:30:20;3.53;;;0.52;;
42670;SDS011;28283;55.426;37.756;2023-07-31T08:35:21;1.33;;;0.70;;
42670;SDS011;28283;55.426;37.756;2023-07-31T08:40:22;0.82;;;0.70;;
42670;SDS011;28283;55.426;37.756;2023-07-31T08:45:23;1.20;;;0.60;;
42670;SDS011;28283;55.426;37.756;2023-07-31T08:50:24;0.47;;;0.45;;
42670;SDS011;28283;55.426;37.756;2023-07-31T08:55:24;0.93;;;0.40;;
42670;SDS011;28283;55.426;37.756;2023-07-31T09:00:26;0.45;;;0.40;;
42670;SDS011;28283;55.426;37.756;2023-07-31T09:05:30;1.10;;;0.70;;
42670;SDS011;28283;55.426;37.756;2023-07-31T09:10:31;1.05;;;0.70;;
42670;SDS011;28283;55.426;37.756;2023-07-31T09:15:32;1.83;;;0.90;;
42670;SDS011;28283;55.426;37.756;2023-07-31T09:20:34;2.17;;;0.70;;
42670;SDS011;28283;55.426;37.756;2023-07-31T09:25:36;0.82;;;0.60;;
42670;SDS011;28283;55.426;37.756;2023-07-31T09:30:48;0.98;;;0.73;;
42670;SDS011;28283;55.426;37.756;2023-07-31T09:35:50;2.38;;;0.70;;
42670;SDS011;28283;55.426;37.756;2023-07-31T09:40:51;0.95;;;0.68;;
42670;SDS011;28283;55.426;37.756;2023-07-31T09:45:54;0.60;;;0.60;;
42670;SDS011;28283;55.426;37.756;2023-07-31T09:50:56;1.27;;;0.93;;
42670;SDS011;28283;55.426;37.756;2023-07-31T09:56:04;0.73;;;0.50;;
42670;SDS011;28283;55.426;37.756;2023-07-31T10:01:05;2.38;;;0.98;;
42670;SDS011;28283;55.426;37.756;2023-07-31T10:06:06;0.63;;;0.30;;
42670;SDS011;28283;55.426;37.756;2023-07-31T10:11:09;3.67;;;0.85;;
42670;SDS011;28283;55.426;37.756;2023-07-31T10:16:11;3.20;;;0.50;;
42670;SDS011;28283;55.426;37.756;2023-07-31T10:21:13;0.75;;;0.60;;
42670;SDS011;28283;55.426;37.756;2023-07-31T10:26:16;1.17;;;0.93;;
42670;SDS011;28283;55.426;37.756;2023-07-31T10:31:19;0.60;;;0.60;;
42670;SDS011;28283;55.426;37.756;2023-07-31T10:36:20;1.50;;;0.80;;
42670;SDS011;28283;55.426;37.756;2023-07-31T10:41:27;0.70;;;0.70;;
42670;SDS011;28283;55.426;37.756;2023-07-31T10:46:30;1.48;;;0.88;;
42670;SDS011;28283;55.426;37.756;2023-07-31T10:51:34;1.50;;;0.50;;
42670;SDS011;28283;55.426;37.756;2023-07-31T10:56:38;2.60;;;0.98;;
42670;SDS011;28283;55.426;37.756;2023-07-31T11:01:55;1.58;;;0.60;;
42670;SDS011;28283;55.426;37.756;2023-07-31T11:07:02;4.53;;;0.82;;
42670;SDS011;28283;55.426;37.756;2023-07-31T11:12:06;3.50;;;0.85;;
42670;SDS011;28283;55.426;37.756;2023-07-31T11:17:07;3.67;;;0.90;;
42670;SDS011;28283;55.426;37.756;2023-07-31T11:22:08;1.67;;;0.85;;
42670;SDS011;28283;55.426;37.756;2023-07-31T11:27:09;0.50;;;0.38;;
42670;SDS011;28283;55.426;37.756;2023-07-31T11:32:15;0.82;;;0.60;;
42670;SDS011;28283;55.426;37.756;2023-07-31T11:37:17;0.88;;;0.60;;
42670;SDS011;28283;55.426;37.756;2023-07-31T11:42:17;0.60;;;0.60;;
42670;SDS011;28283;55.426;37.756;2023-07-31T11:47:18;0.77;;;0.40;;
42670;SDS011;28283;55.426;37.756;2023-07-31T11:52:21;1.65;;;0.35;;
42670;SDS011;28283;55.426;37.756;2023-07-31T11:57:23;1.85;;;0.80;;
42670;SDS011;28283;55.426;37.756;2023-07-31T12:02:24;2.45;;;0.70;;
42670;SDS011;28283;55.426;37.756;2023-07-31T12:07:25;3.35;;;0.80;;
42670;SDS011;28283;55.426;37.756;2023-07-31T12:12:26;1.27;;;0.68;;
42670;SDS011;28283;55.426;37.756;2023-07-31T12:17:26;2.53;;;0.80;;
42670;SDS011;28283;55.426;37.756;2023-07-31T12:22:28;1.27;;;1.05;;
42670;SDS011;28283;55.426;37.756;2023-07-31T12:27:32;0.98;;;0.80;;
42670;SDS011;28283;55.426;37.756;2023-07-31T12:32:34;1.08;;;0.70;;
42670;SDS011;28283;55.426;37.756;2023-07-31T12:37:35;0.55;;;0.55;;
42670;SDS011;28283;55.426;37.756;2023-07-31T12:42:36;1.42;;;1.20;;
42670;SDS011;28283;55.426;37.756;2023-07-31T12:47:36;1.88;;;1.17;;
42670;SDS011;28283;55.426;37.756;2023-07-31T12:52:37;3.10;;;0.77;;
42670;SDS011;28283;55.426;37.756;2023-07-31T12:57:37;1.10;;;1.00;;
42670;SDS011;28283;55.426;37.756;2023-07-31T13:02:39;3.10;;;1.05;;
42670;SDS011;28283;55.426;37.756;2023-07-31T13:07:40;0.98;;;0.88;;
42670;SDS011;28283;55.426;37.756;2023-07-31T13:12:41;1.55;;;0.90;;
42670;SDS011;28283;55.426;37.756;2023-07-31T13:17:41;4.00;;;1.35;;
42670;SDS011;28283;55.426;37.756;2023-07-31T13:22:42;1.33;;;1.00;;
42670;SDS011;28283;55.426;37.756;2023-07-31T13:27:43;0.70;;;0.70;;
42670;SDS011;28283;55.426;37.756;2023-07-31T13:32:44;2.15;;;1.05;;
42670;SDS011;28283;55.426;37.756;2023-07-31T13:37:44;1.52;;;0.70;;
42670;SDS011;28283;55.426;37.756;2023-07-31T13:42:45;0.50;;;0.47;;
42670;SDS011;28283;55.426;37.756;2023-07-31T13:47:47;4.03;;;0.90;;
42670;SDS011;28283;55.426;37.756;2023-07-31T13:52:47;1.75;;;0.85;;
42670;SDS011;28283;55.426;37.756;2023-07-31T13:57:48;0.70;;;0.70;;
42670;SDS011;28283;55.426;37.756;2023-07-31T14:02:49;1.23;;;0.77;;
42670;SDS011;28283;55.426;37.756;2023-07-31T14:07:49;1.45;;;0.88;;
42670;SDS011;28283;55.426;37.756;2023-07-31T14:12:50;1.05;;;1.00;;
42670;SDS011;28283;55.426;37.756;2023-07-31T14:17:50;1.40;;;1.10;;
42670;SDS011;28283;55.426;37.756;2023-07-31T14:22:51;2.17;;;1.02;;
42670;SDS011;28283;55.426;37.756;2023-07-31T14:27:52;2.95;;;1.05;;
42670;SDS011;28283;55.426;37.756;2023-07-31T14:32:52;2.97;;;1.60;;
42670;SDS011;28283;55.426;37.756;2023-07-31T14:37:53;1.33;;;0.82;;
42670;SDS011;28283;55.426;37.756;2023-07-31T14:42:54;4.60;;;2.05;;
42670;SDS011;28283;55.426;37.756;2023-07-31T14:47:54;1.77;;;1.33;;
42670;SDS011;28283;55.426;37.756;2023-07-31T14:52:55;4.68;;;2.53;;
42670;SDS011;28283;55.426;37.756;2023-07-31T14:57:56;7.30;;;3.25;;
42670;SDS011;28283;55.426;37.756;2023-07-31T15:02:56;5.82;;;2.15;;
42670;SDS011;28283;55.426;37.756;2023-07-31T15:07:57;7.85;;;1.77;;
42670;SDS011;28283;55.426;37.756;2023-07-31T15:12:57;2.40;;;1.38;;
42670;SDS011;28283;55.426;37.756;2023-07-31T15:17:58;7.82;;;1.98;;
42670;SDS011;28283;55.426;37.756;2023-07-31T15:22:59;6.57;;;2.47;;
42670;SDS011;28283;55.426;37.756;2023-07-31T15:28:00;4.53;;;1.80;;
42670;SDS011;28283;55.426;37.756;2023-07-31T15:33:01;3.92;;;1.52;;
42670;SDS011;28283;55.426;37.756;2023-07-31T15:38:02;3.22;;;2.17;;
42670;SDS011;28283;55.426;37.756;2023-07-31T15:43:02;4.05;;;1.67;;
42670;SDS011;28283;55.426;37.756;2023-07-31T15:48:04;4.63;;;2.40;;
42670;SDS011;28283;55.426;37.756;2023-07-31T15:53:05;5.55;;;2.35;;
42670;SDS011;28283;55.426;37.756;2023-07-31T15:58:05;9.10;;;2.03;;
42670;SDS011;28283;55.426;37.756;2023-07-31T16:03:06;7.40;;;2.28;;
42670;SDS011;28283;55.426;37.756;2023-07-31T16:08:07;6.82;;;1.88;;
42670;SDS011;28283;55.426;37.756;2023-07-31T16:13:08;10.18;;;1.73;;
42670;SDS011;28283;55.426;37.756;2023-07-31T16:18:09;4.15;;;1.75;;
42670;SDS011;28283;55.426;37.756;2023-07-31T16:23:10;3.63;;;1.30;;
42670;SDS011;28283;55.426;37.756;2023-07-31T16:28:11;7.78;;;2.47;;
42670;SDS011;28283;55.426;37.756;2023-07-31T16:33:11;3.95;;;2.22;;
42670;SDS011;28283;55.426;37.756;2023-07-31T16:38:12;4.60;;;2.17;;
42670;SDS011;28283;55.426;37.756;2023-07-31T16:43:13;1.88;;;1.42;;
42670;SDS011;28283;55.426;37.756;2023-07-31T16:48:13;3.20;;;1.92;;
42670;SDS011;28283;55.426;37.756;2023-07-31T16:53:14;4.88;;;1.77;;
42670;SDS011;28283;55.426;37.756;2023-07-31T16:58:14;3.83;;;2.25;;
42670;SDS011;28283;55.426;37.756;2023-07-31T17:03:15;4.57;;;2.30;;
42670;SDS011;28283;55.426;37.756;2023-07-31T17:08:16;3.22;;;2.42;;
42670;SDS011;28283;55.426;37.756;2023-07-31T17:13:16;4.65;;;3.28;;
42670;SDS011;28283;55.426;37.756;2023-07-31T17:18:17;5.43;;;3.65;;
42670;SDS011;28283;55.426;37.756;2023-07-31T17:23:18;6.00;;;3.05;;
42670;SDS011;28283;55.426;37.756;2023-07-31T17:28:18;6.90;;;2.90;;
42670;SDS011;28283;55.426;37.756;2023-07-31T17:33:19;6.78;;;3.33;;
42670;SDS011;28283;55.426;37.756;2023-07-31T17:38:20;7.15;;;2.92;;
42670;SDS011;28283;55.426;37.756;2023-07-31T17:43:20;7.07;;;3.17;;
42670;SDS011;28283;55.426;37.756;2023-07-31T17:48:21;5.75;;;3.15;;
42670;SDS011;28283;55.426;37.756;2023-07-31T17:53:21;8.73;;;3.08;;
42670;SDS011;28283;55.426;37.756;2023-07-31T17:58:22;5.03;;;2.97;;
42670;SDS011;28283;55.426;37.756;2023-07-31T18:03:22;7.38;;;2.58;;
42670;SDS011;28283;55.426;37.756;2023-07-31T18:08:25;8.73;;;2.85;;
42670;SDS011;28283;55.426;37.756;2023-07-31T18:13:26;6.00;;;3.25;;
42670;SDS011;28283;55.426;37.756;2023-07-31T18:18:27;9.32;;;3.60;;
42670;SDS011;28283;55.426;37.756;2023-07-31T18:23:29;16.50;;;4.13;;
42670;SDS011;28283;55.426;37.756;2023-07-31T18:28:29;5.50;;;3.25;;
42670;SDS011;28283;55.426;37.756;2023-07-31T18:33:30;11.93;;;4.40;;
42670;SDS011;28283;55.426;37.756;2023-07-31T18:38:31;7.20;;;3.50;;
42670;SDS011;28283;55.426;37.756;2023-07-31T18:43:32;13.40;;;4.60;;
42670;SDS011;28283;55.426;37.756;2023-07-31T18:48:33;13.18;;;6.65;;
42670;SDS011;28283;55.426;37.756;2023-07-31T18:53:33;34.10;;;9.60;;
42670;SDS011;28283;55.426;37.756;2023-07-31T18:58:34;20.58;;;9.68;;
42670;SDS011;28283;55.426;37.756;2023-07-31T19:03:35;10.20;;;6.15;;
42670;SDS011;28283;55.426;37.756;2023-07-31T19:08:37;16.25;;;8.32;;
42670;SDS011;28283;55.426;37.756;2023-07-31T19:13:38;18.38;;;9.00;;
42670;SDS011;28283;55.426;37.756;2023-07-31T19:18:40;17.70;;;9.38;;
42670;SDS011;28283;55.426;37.756;2023-07-31T19:23:41;13.98;;;8.43;;
42670;SDS011;28283;55.426;37.756;2023-07-31T19:28:42;7.78;;;3.95;;
42670;SDS011;28283;55.426;37.756;2023-07-31T19:33:43;11.25;;;3.80;;
42670;SDS011;28283;55.426;37.756;2023-07-31T19:38:43;10.55;;;4.78;;
42670;SDS011;28283;55.426;37.756;2023-07-31T19:43:44;12.40;;;5.28;;
42670;SDS011;28283;55.426;37.756;2023-07-31T19:53:45;8.52;;;2.97;;
42670;SDS011;28283;55.426;37.756;2023-07-31T19:58:46;8.35;;;4.00;;
42670;SDS011;28283;55.426;37.756;2023-07-31T20:03:47;7.03;;;4.50;;
42670;SDS011;28283;55.426;37.756;2023-07-31T20:08:48;5.38;;;3.55;;
42670;SDS011;28283;55.426;37.756;2023-07-31T20:13:48;7.70;;;3.53;;
42670;SDS011;28283;55.426;37.756;2023-07-31T20:18:49;5.97;;;4.30;;
42670;SDS011;28283;55.426;37.756;2023-07-31T20:23:51;9.07;;;5.70;;
42670;SDS011;28283;55.426;37.756;2023-07-31T20:33:52;9.20;;;5.40;;
42670;SDS011;28283;55.426;37.756;2023-07-31T20:38:53;7.50;;;5.53;;
42670;SDS011;28283;55.426;37.756;2023-07-31T20:48:54;9.43;;;5.70;;
42670;SDS011;28283;55.426;37.756;2023-07-31T20:58:55;10.50;;;5.13;;
42670;SDS011;28283;55.426;37.756;2023-07-31T21:03:55;11.55;;;5.50;;
42670;SDS011;28283;55.426;37.756;2023-07-31T21:13:58;16.52;;;6.88;;
42670;SDS011;28283;55.426;37.756;2023-07-31T21:18:59;15.40;;;6.75;;
42670;SDS011;28283;55.426;37.756;2023-07-31T21:29:00;11.20;;;7.03;;
42670;SDS011;28283;55.426;37.756;2023-07-31T21:34:01;10.73;;;5.93;;
42670;SDS011;28283;55.426;37.756;2023-07-31T21:44:02;10.23;;;6.47;;
42670;SDS011;28283;55.426;37.756;2023-07-31T21:54:03;12.67;;;5.57;;
